EW4423 Weather Reports


Display with metric or nautical units.
time (UTC)temp
F
wind
direction
speed
MPH
gust
MPH
rain 1hr
in
rain 24hr
in
rain mn
in
humidity
%
barometer
mb
20210305004512 63 153 4.0 8.0 0.00 0.00 0.00 43 1015.5
20210305003054 64 160 6.0 11.0 0.00 0.00 0.00 42 1015.4
20210305000437 66 143 4.0 9.0 0.00 0.00 0.00 40 1015.7
20210304234624 67 131 5.0 11.0 0.00 0.00 0.00 39 1015.7
20210304233308 67 138 7.0 12.0 0.00 0.00 0.00 39 1015.3
20210304231654 68 168 6.0 14.0 0.00 0.00 0.00 39 1015.5
20210304230220 69 139 9.0 13.0 0.00 0.00 0.00 38 1015.6
20210304224645 69 163 8.0 13.0 0.00 0.00 0.00 37 1016.0
20210304223241 70 157 9.0 15.0 0.00 0.00 0.00 35 1016.2
20210304221635 71 167 6.0 19.0 0.00 0.00 0.00 36 1016.3
20210304220240 71 149 8.0 14.0 0.00 0.00 0.00 36 1016.5
20210304214655 71 123 10.0 17.0 0.00 0.00 0.00 34 1016.5
20210304213123 72 146 10.0 16.0 0.00 0.00 0.00 33 1016.8
20210304211631 72 142 11.0 15.0 0.00 0.00 0.00 35 1017.1
20210304210124 72 180 8.0 15.0 0.00 0.00 0.00 36 1017.1
20210304204637 72 116 8.0 16.0 0.00 0.00 0.00 36 1017.4
20210304203521 72 138 7.0 12.0 0.00 0.00 0.00 37 1017.4
20210304201623 71 176 9.0 13.0 0.00 0.00 0.00 38 1017.4
20210304200326 71 136 9.0 16.0 0.00 0.00 0.00 38 1017.7
20210304194546 71 181 6.0 13.0 0.00 0.00 0.00 38 1018.1
20210304193225 70 205 5.0 12.0 0.00 0.00 0.00 40 1018.4
20210304191541 69 186 4.0 15.0 0.00 0.00 0.00 42 1018.6
20210304190140 69 89 7.0 11.0 0.00 0.00 0.00 42 1019.1
20210304184610 68 196 4.0 16.0 0.00 0.00 0.00 44 1019.7
20210304183057 68 138 8.0 14.0 0.00 0.00 0.00 44 1020.0
20210304181548 67 204 8.0 14.0 0.00 0.00 0.00 48 1020.6
20210304180201 67 193 6.0 13.0 0.00 0.00 0.00 49 1020.8
20210304174529 66 192 8.0 12.0 0.00 0.00 0.00 51 1021.0
20210304173257 65 153 7.0 11.0 0.00 0.00 0.00 53 1021.3
20210304171659 64 205 4.0 8.0 0.00 0.00 0.00 55 1021.5
20210304170439 63 234 4.0 11.0 0.00 0.00 0.00 57 1021.6
20210304164637 62 194 8.0 14.0 0.00 0.00 0.00 59 1021.5
20210304162213 59 181 5.0 10.0 0.00 0.00 0.00 64 1022.1
20210304160331 58 217 4.0 8.0 0.00 0.00 0.00 67 1022.2
20210304154935 56 230 6.0 8.0 0.00 0.00 0.00 70 1022.3
20210304153316 55 227 5.0 9.0 0.00 0.00 0.00 71 1022.0
20210304151554 53 215 6.0 9.0 0.00 0.00 0.00 74 1021.6
20210304150309 51 188 6.0 8.0 0.00 0.00 0.00 77 1021.8
20210304144630 49 169 3.0 7.0 0.00 0.00 0.00 79 1022.0
20210304143031 47 157 3.0 5.0 0.00 0.00 0.00 81 1022.0
20210304141534 45 170 4.0 6.0 0.00 0.00 0.00 83 1022.1
20210304140029 43 178 2.0 5.0 0.00 0.00 0.00 85 1021.8
20210304134536 41 165 3.0 5.0 0.00 0.00 0.00 84 1021.7
20210304133052 40 160 2.0 5.0 0.00 0.00 0.00 83 1021.6
20210304131524 40 173 3.0 5.0 0.00 0.00 0.00 83 1021.5
20210304130023 40 143 3.0 4.0 0.00 0.00 0.00 80 1021.2
20210304124529 41 134 3.0 6.0 0.00 0.00 0.00 81 1021.2
20210304121811 41 161 3.0 5.0 0.00 0.00 0.00 79 1021.3
20210304120306 41 167 4.0 7.0 0.00 0.00 0.00 80 1021.4
20210304114624 41 155 3.0 6.0 0.00 0.00 0.00 80 1021.3
20210304113308 42 144 1.0 3.0 0.00 0.00 0.00 80 1021.0
20210304111637 42 119 4.0 8.0 0.00 0.00 0.00 80 1020.5
20210304110407 42 126 4.0 7.0 0.00 0.00 0.00 79 1020.3
20210304104600 42 132 3.0 4.0 0.00 0.00 0.00 79 1020.7
20210304103148 42 128 1.0 3.0 0.00 0.00 0.00 78 1020.7
20210304101619 42 129 3.0 6.0 0.00 0.00 0.00 78 1020.4
20210304094546 43 136 3.0 5.0 0.00 0.00 0.00 77 1020.4
20210304093139 43 119 2.0 3.0 0.00 0.00 0.00 75 1020.6
20210304091745 43 119 2.0 3.0 0.00 0.00 0.00 76 1020.5
20210304090146 44 116 3.0 6.0 0.00 0.00 0.00 74 1020.6
20210304084611 44 109 2.0 4.0 0.00 0.00 0.00 74 1020.7
20210304083042 44 137 4.0 7.0 0.00 0.00 0.00 74 1020.6
20210304081556 45 132 3.0 5.0 0.00 0.00 0.00 73 1020.8
20210304080036 45 124 2.0 4.0 0.00 0.00 0.00 73 1020.9
20210304074550 45 120 3.0 6.0 0.00 0.00 0.00 72 1020.9
20210304073046 45 131 3.0 5.0 0.00 0.00 0.00 72 1020.8
20210304071541 46 141 3.0 5.0 0.00 0.00 0.00 72 1020.9
20210304070040 46 108 3.0 6.0 0.00 0.00 0.00 70 1020.8
20210304064640 46 142 3.0 5.0 0.00 0.00 0.00 69 1020.8
20210304063150 47 127 4.0 5.0 0.00 0.00 0.00 68 1020.8
20210304061618 47 115 4.0 6.0 0.00 0.00 0.00 68 1020.9
20210304060034 47 130 4.0 8.0 0.00 0.00 0.00 67 1021.1
20210304054525 47 133 3.0 4.0 0.00 0.00 0.00 68 1021.3
20210304053030 48 162 3.0 5.0 0.00 0.00 0.00 67 1021.5
20210304051521 48 190 4.0 5.0 0.00 0.00 0.00 65 1021.3
20210304050039 47 205 3.0 4.0 0.00 0.00 0.00 64 1021.3
20210304044522 47 224 2.0 5.0 0.00 0.00 0.00 65 1021.3
20210304043051 47 222 3.0 4.0 0.00 0.00 0.00 65 1021.2
20210304041533 47 254 3.0 7.0 0.00 0.00 0.00 68 1021.0
20210304034559 51 133 3.0 5.0 0.00 0.00 0.00 60 1020.7
20210304033251 52 166 1.0 3.0 0.00 0.00 0.00 53 1020.8
20210304031526 52 166 2.0 3.0 0.00 0.00 0.00 50 1020.7
20210304030241 53 165 3.0 5.0 0.00 0.00 0.00 50 1020.6
20210304024525 53 154 3.0 6.0 0.00 0.00 0.00 50 1020.6
20210304023123 54 182 2.0 4.0 0.00 0.00 0.00 48 1020.6
20210304021531 55 184 3.0 4.0 0.00 0.00 0.00 48 1020.5
20210304020022 55 190 3.0 6.0 0.00 0.00 0.00 47 1020.3
20210304014522 56 163 3.0 6.0 0.00 0.00 0.00 46 1020.0
20210304013032 56 162 3.0 5.0 0.00 0.00 0.00 46 1020.0
20210304011528 58 182 3.0 6.0 0.00 0.00 0.00 43 1019.8
20210304010042 59 198 5.0 6.0 0.00 0.00 0.00 42 1019.8